Friday, November 21, 2014, 3:15 AM EST

KRDG, Reading Regional Airport

Location: Reading, PA, United States Lat: 40.367
Local Time: 3:15 AM EST ( 8:15 GMT) Lon: -75.967
Time Zone: US/Eastern Elev: 344 ft

Show me the last for .
Show Decoded

2014-11-21 02:54 METAR KRDG 210754Z AUTO 28011G20KT 10SM CLR M03/M13 A3014 RMK AO2 SLP213
                 T10281133 =
2014-11-21 01:54 METAR KRDG 210654Z AUTO 28009KT 10SM CLR M03/M13 A3011 RMK AO2 SLP204 T10281133
                 =
2014-11-21 00:54 METAR KRDG 210554Z AUTO 27008KT 10SM CLR M02/M13 A3009 RMK AO2 SLP198 T10221133
                 10011 21028 51014 =
2014-11-20 23:54 METAR KRDG 210454Z AUTO 29010KT 10SM CLR M02/M14 A3008 RMK AO2 SLP194 T10171139
                 400721050 =
2014-11-20 22:54 METAR KRDG 210354Z AUTO 31006KT 10SM CLR M03/M13 A3007 =
2014-11-20 21:54 METAR KRDG 210254Z 00000KT 10SM CLR M02/M13 A3005 RMK AO2 SLP184 T10171128 51024
                 =
2014-11-20 20:54 METAR KRDG 210154Z 30013KT 10SM CLR M01/M13 A3005 =
2014-11-20 19:54 METAR KRDG 210054Z 30011KT 10SM CLR M01/M12 A3001 RMK AO2 SLP171 T10061117 =
2014-11-20 18:54 METAR KRDG 202354Z 30013KT 10SM CLR 01/M11 A2998 =
2014-11-20 17:54 METAR KRDG 202254Z 30014KT 10SM CLR 02/M11 A2995 RMK AO2 SLP149 T00221106 =
2014-11-20 16:54 METAR KRDG 202154Z 30008KT 10SM CLR 03/M09 A2992 RMK AO2 SLP139 T00331094 =
2014-11-20 15:54 METAR KRDG 202054Z 30015KT 10SM CLR 05/M09 A2989 RMK AO2 SLP130 T00501089 53003
                 =
2014-11-20 14:54 METAR KRDG 201954Z 29015G20KT 10SM CLR 07/M09 A2987 RMK AO2 SLP123 T00671089 =
2014-11-20 13:54 METAR KRDG 201854Z 26015G20KT 10SM CLR 07/M07 A2987 RMK AO2 SLP122 T00721072 =
2014-11-20 12:54 METAR KRDG 201754Z 30012G20KT 10SM SCT055 07/M06 A2988 RMK AO2 SLP127 T00721061
                 10072 20006 58022 =
2014-11-20 11:54 METAR KRDG 201654Z 28013G20KT 10SM FEW049 06/M06 A2990 RMK AO2 SLP133 T00561056
                 =
2014-11-20 10:54 METAR KRDG 201554Z 21006KT 10SM FEW043 BKN060 05/M07 A2994 =
2014-11-20 09:54 METAR KRDG 201454Z 30006KT 10SM SCT065 02/M08 A2995 RMK AO2 SLP149 T00171083
                 51008 =
2014-11-20 08:54 METAR KRDG 201354Z 00000KT 10SM BKN065 01/M08 A2995 RMK AO2 SLP150 T00061078 =
2014-11-20 07:54 METAR KRDG 201254Z 25004KT 10SM OVC070 01/M09 A2993 RMK AO2 SLP145 T00111089 =
2014-11-20 06:54 METAR KRDG 201154Z 25003KT 10SM OVC065 01/M09 A2992 RMK AO2 SLP141 T00061089
                 10011 21050 56012 =
2014-11-20 05:54 METAR KRDG 201054Z 18005KT 10SM OVC065 00/M09 A2993 RMK AO2 SLP142 T00001089 =
2014-11-20 04:54 METAR KRDG 200954Z AUTO 12005KT 10SM OVC065 M01/M07 A2994 RMK AO2 SLP147
                 T10111072 =
2014-11-20 03:54 METAR KRDG 200854Z AUTO 13003KT 10SM OVC075 M02/M08 A2996 RMK AO2 SLP154
                 T10221078 58007 =

Support USWX by starting your Amazon purchase here.